Flight Track Log - Related Links

Times and Time Zones

All times are in EDT time to prevent confusion due to time zone crossing. See the DAL5880 flight status page for this flight to view local times or setup timezone preferences in your user account.

Time Position Orientation Groundspeed Altitude Reporting Facility
EDT Latitude Longitude Course Direction KTS MPH feet Rate Location/Type
Tue 12:33:59 PM 40.7333 -73.8333 37° Northeast 177 204 2,300  Level New York TRACON
Tue 12:34:59 PM 40.7500 -73.7667 72° East 241 277 5,600 2,671 Climbing New York TRACON
Tue 12:36:00 PM 41.0579 -73.5297 41° Northeast  Level FlightAware Approximate
Tue 12:36:43 PM 40.8533 -73.6914 29° Northeast 285 328 9,600  Level Boston Center
Tue 12:37:00 PM 41.1296 -73.4406 44° Northeast  Level FlightAware Approximate
Tue 12:37:43 PM 40.9228 -73.6186 38° Northeast 299 344 12,500  Level Boston Center
Tue 12:38:00 PM 41.2002 -73.3497 48° Northeast  Level FlightAware Approximate
Tue 12:38:43 PM 41.0008 -73.5375 38° Northeast 329 379 15,700  Level Boston Center
Tue 12:39:00 PM 41.2613 -73.2721 37° Northeast  Level FlightAware Approximate
Tue 12:39:43 PM 41.0914 -73.4453 37° Northeast 370 426 18,100  Level Boston Center
Tue 12:40:43 PM 41.1550 -73.3111 58° Northeast 402 463 19,000 450 Climbing Boston Center
Tue 12:41:43 PM 41.1997 -73.1572 69° East 425 489 19,000  Level Boston Center
Tue 12:42:43 PM 41.2486 -73.0033 67° East 436 502 19,000  Level Boston Center
Tue 12:43:43 PM 41.2931 -72.8572 68° East 436 502 19,000  Level Boston Center
Tue 12:44:43 PM 41.3392 -72.7056 68° East 436 502 19,000  Level Boston Center
Tue 12:45:43 PM 41.3811 -72.5700 68° East 436 502 19,000  Level Boston Center
Tue 12:46:43 PM 41.4314 -72.4042 68° East 436 502 19,000  Level Boston Center
Tue 12:47:43 PM 41.4792 -72.2489 68° East 436 502 19,000 -550 Level Boston Center
Tue 12:48:43 PM 41.5225 -72.1100 67° East 441 507 17,900 -1,400 Descending Boston Center
Tue 12:49:43 PM 41.5697 -71.9461 69° East 431 496 16,200 -1,550 Descending Boston Center
Tue 12:50:43 PM 41.6089 -71.8153 68° East 425 489 14,800 -1,450 Descending Boston Center
Tue 12:51:43 PM 41.6558 -71.6622 68° East 410 472 13,300 -1,450 Descending Boston Center
Tue 12:52:43 PM 41.6944 -71.5311 68° East 385 443 11,900 -1,150 Descending Boston Center
Tue 12:53:43 PM 41.7308 -71.4164 67° East 350 403 11,000 -409 Descending Boston Center
Tue 12:54:55 PM 41.7964 -71.3011 53° Northeast 320 368 11,000 -273 Level Boston Center
Tue 12:55:55 PM 41.8647 -71.2553 27° Northeast 300 345 10,400 -1,350 Descending Boston Center
Tue 12:56:55 PM 41.9519 -71.2092 21° North 300 345 8,300 -1,900 Descending Boston Center
Tue 12:57:55 PM 42.0203 -71.1769 19° North 288 331 6,600 -1,400 Descending Boston Center
Tue 12:58:55 PM 42.0969 -71.1364 21° North 283 326 5,500 -1,313 Descending Boston Center
Tue 12:59:31 PM 42.1333 -71.1167 22° Northeast 253 291 4,500 -1,438 Descending KA90
Tue 01:00:31 PM 42.2000 -71.0833 20° North 239 275 3,200 -1,200 Descending KA90
Tue 01:01:26 PM 42.2500 -71.0667 14° North 198 228 2,200 -1,091 Descending KA90

Login

Don't have an account? Register now (free) for customized features, flight alerts, and more!